createdAt,value
2022-08-25T00:02:56.719Z,100479.19
2022-08-25T00:05:59.360Z,100483.00
2022-08-25T00:09:00.824Z,100481.44
2022-08-25T00:12:03.769Z,100479.75
2022-08-25T00:15:05.914Z,100480.91
2022-08-25T00:18:11.350Z,100479.03
2022-08-25T00:21:23.656Z,100480.31
2022-08-25T00:24:25.287Z,100477.34
2022-08-25T00:27:27.472Z,100475.63
2022-08-25T00:30:28.894Z,100475.22
2022-08-25T00:33:33.434Z,100476.75
2022-08-25T00:36:35.564Z,100478.91
2022-08-25T00:39:38.695Z,100478.06
2022-08-25T00:42:41.144Z,100484.03
2022-08-25T00:45:42.549Z,100478.34
2022-08-25T00:48:47.374Z,100480.03
2022-08-25T00:52:12.102Z,100491.13
2022-08-25T00:55:30.328Z,100485.03
2022-08-25T00:58:34.294Z,100476.09
2022-08-25T01:01:35.988Z,100471.78
2022-08-25T01:04:37.694Z,100467.38
2022-08-25T01:07:41.220Z,100467.09
2022-08-25T01:10:47.934Z,100463.53
2022-08-25T01:13:53.672Z,100457.97
2022-08-25T01:16:55.125Z,100460.66
2022-08-25T01:19:56.577Z,100460.25
2022-08-25T01:22:59.424Z,100458.97
2022-08-25T01:26:08.840Z,100456.97
2022-08-25T01:29:25.133Z,100466.91
2022-08-25T01:32:26.549Z,100466.91
2022-08-25T01:35:27.996Z,100471.38
2022-08-25T01:38:29.506Z,100473.38
2022-08-25T01:41:33.858Z,100476.88
2022-08-25T01:44:39.145Z,100472.22
2022-08-25T01:47:40.579Z,100467.94
2022-08-25T01:50:43.849Z,100468.34
2022-08-25T01:53:45.313Z,100466.78
2022-08-25T01:56:46.844Z,100471.56
2022-08-25T01:59:48.292Z,100474.66
2022-08-25T02:02:52.322Z,100482.50
2022-08-25T02:05:57.753Z,100484.19
2022-08-25T02:09:05.126Z,100481.63
2022-08-25T02:12:06.947Z,100487.47
2022-08-25T02:15:09.275Z,100487.41
2022-08-25T02:18:11.554Z,100488.53
2022-08-25T02:21:14.181Z,100490.78
2022-08-25T02:24:16.350Z,100486.47
2022-08-25T02:27:17.806Z,100483.50
2022-08-25T02:30:19.680Z,100484.97
2022-08-25T02:33:22.207Z,100478.84
2022-08-25T02:36:23.852Z,100479.25
2022-08-25T02:39:25.269Z,100475.72
2022-08-25T02:42:27.718Z,100474.13
2022-08-25T02:45:29.594Z,100475.84
2022-08-25T02:48:31.117Z,100468.63
2022-08-25T02:51:33.689Z,100462.91
2022-08-25T02:54:35.655Z,100460.91
2022-08-25T02:57:37.061Z,100459.44
2022-08-25T03:00:38.483Z,100465.19
2022-08-25T03:03:43.618Z,100456.50
2022-08-25T03:06:45.672Z,100454.56
2022-08-25T03:09:48.113Z,100457.00
2022-08-25T03:12:49.621Z,100455.84
2022-08-25T03:15:51.049Z,100457.22
2022-08-25T03:18:53.154Z,100457.00
2022-08-25T03:21:56.796Z,100451.19
2022-08-25T03:25:23.475Z,100454.00
2022-08-25T03:28:29.966Z,100450.19
2022-08-25T03:31:33.664Z,100458.00
2022-08-25T03:34:35.127Z,100457.06
2022-08-25T03:37:37.224Z,100458.72
2022-08-25T03:40:38.683Z,100451.69
2022-08-25T03:43:40.174Z,100455.63
2022-08-25T03:46:44.973Z,100444.88
2022-08-25T03:49:46.534Z,100444.25
2022-08-25T03:52:56.384Z,100434.03
2022-08-25T03:55:57.868Z,100426.81
2022-08-25T03:58:59.304Z,100418.28
2022-08-25T04:02:01.717Z,100416.72
2022-08-25T04:05:03.767Z,100428.59
2022-08-25T04:08:06.842Z,100425.72
2022-08-25T04:11:11.127Z,100433.38
2022-08-25T04:14:15.862Z,100429.59
2022-08-25T04:17:18.662Z,100433.78
2022-08-25T04:20:20.094Z,100435.22
2022-08-25T04:23:21.523Z,100437.44
2022-08-25T04:26:33.366Z,100449.16
2022-08-25T04:29:35.107Z,100440.13
2022-08-25T04:32:37.308Z,100444.63
2022-08-25T04:35:39.249Z,100449.03
2022-08-25T04:38:43.972Z,100454.31
2022-08-25T04:41:45.728Z,100454.59
2022-08-25T04:44:47.140Z,100456.06
2022-08-25T04:47:51.764Z,100454.34
2022-08-25T04:50:56.218Z,100455.13
2022-08-25T04:54:03.216Z,100452.06
2022-08-25T04:57:05.131Z,100451.06
2022-08-25T05:00:07.322Z,100456.28
2022-08-25T05:03:09.264Z,100454.53
2022-08-25T05:06:15.701Z,100456.47
2022-08-25T05:09:19.837Z,100450.59
2022-08-25T05:12:23.264Z,100453.03
2022-08-25T05:15:44.942Z,100446.16
2022-08-25T05:18:48.113Z,100451.41
2022-08-25T05:21:49.706Z,100456.38
2022-08-25T05:24:51.131Z,100448.47
2022-08-25T05:27:52.585Z,100447.28
2022-08-25T05:30:58.788Z,100446.75
2022-08-25T05:34:00.405Z,100439.34
2022-08-25T05:37:03.278Z,100443.22
2022-08-25T05:40:06.531Z,100443.16
2022-08-25T05:43:08.014Z,100439.97
2022-08-25T05:46:10.369Z,100438.66
2022-08-25T05:49:11.866Z,100436.88
2022-08-25T05:52:18.064Z,100438.41
2022-08-25T05:55:21.636Z,100443.84
2022-08-25T05:58:23.955Z,100451.53
2022-08-25T06:01:47.238Z,100449.00
2022-08-25T06:04:48.736Z,100439.00
2022-08-25T06:07:52.197Z,100438.22
2022-08-25T06:10:53.636Z,100439.91
2022-08-25T06:13:55.246Z,100443.31
2022-08-25T06:16:56.919Z,100440.53
2022-08-25T06:19:58.320Z,100439.41
2022-08-25T06:23:00.632Z,100445.47
2022-08-25T06:26:02.472Z,100437.94
2022-08-25T06:29:04.885Z,100442.03
2022-08-25T06:32:06.418Z,100442.16
2022-08-25T06:35:10.902Z,100448.53
2022-08-25T06:38:12.443Z,100443.03
2022-08-25T06:41:14.564Z,100441.19
2022-08-25T06:44:16.058Z,100438.47
2022-08-25T06:47:18.465Z,100433.41
2022-08-25T06:50:20.148Z,100443.41
2022-08-25T06:53:21.552Z,100437.38
2022-08-25T06:56:23.037Z,100439.09
2022-08-25T06:59:25.728Z,100434.56
2022-08-25T07:02:35.468Z,100429.63
2022-08-25T07:05:44.266Z,100428.22
2022-08-25T07:08:47.926Z,100418.56
2022-08-25T07:11:49.489Z,100416.13
2022-08-25T07:15:10.050Z,100424.63
2022-08-25T07:18:13.196Z,100421.53
2022-08-25T07:21:15.099Z,100422.69
2022-08-25T07:24:16.681Z,100417.44
2022-08-25T07:27:18.351Z,100416.84
2022-08-25T07:30:19.844Z,100416.78
2022-08-25T07:33:21.869Z,100419.19
2022-08-25T07:36:23.397Z,100400.09
2022-08-25T07:39:26.814Z,100403.41
2022-08-25T07:42:30.571Z,100409.72
2022-08-25T07:45:35.102Z,100413.16
2022-08-25T07:48:36.912Z,100416.50
2022-08-25T07:51:38.344Z,100410.91
2022-08-25T07:55:00.006Z,100409.41
2022-08-25T07:58:02.100Z,100414.94
2022-08-25T08:01:04.301Z,100419.91
2022-08-25T08:04:06.158Z,100410.97
2022-08-25T08:07:12.211Z,100416.66
2022-08-25T08:13:41.318Z,100421.44
2022-08-25T08:16:43.079Z,100418.34
2022-08-25T08:19:45.456Z,100419.53
2022-08-25T08:22:47.094Z,100423.03
2022-08-25T08:25:49.314Z,100410.34
2022-08-25T08:28:52.188Z,100426.78
2022-08-25T08:31:53.838Z,100417.28
2022-08-25T08:34:55.314Z,100421.16
2022-08-25T08:37:57.001Z,100425.13
2022-08-25T08:45:30.999Z,100403.31
2022-08-25T08:48:35.189Z,100408.63
2022-08-25T08:51:48.784Z,100402.72
2022-08-25T08:54:58.425Z,100403.94
2022-08-25T08:58:05.571Z,100404.91
2022-08-25T09:01:10.515Z,100391.38
2022-08-25T09:04:20.053Z,100400.38
2022-08-25T09:07:30.046Z,100395.25
2022-08-25T09:11:10.188Z,100390.88
2022-08-25T09:14:38.396Z,100386.25
2022-08-25T09:18:05.270Z,100387.47
2022-08-25T09:21:20.925Z,100387.38
2022-08-25T09:24:31.198Z,100392.47
2022-08-25T09:27:46.063Z,100379.63
2022-08-25T09:31:13.990Z,100379.63
2022-08-25T09:34:28.406Z,100373.50
2022-08-25T09:37:30.061Z,100358.81
2022-08-25T09:40:39.022Z,100357.34
2022-08-25T09:43:52.896Z,100355.97
2022-08-25T09:47:06.063Z,100358.69
2022-08-25T09:50:18.611Z,100356.81
2022-08-25T09:53:21.983Z,100349.63
2022-08-25T09:56:27.486Z,100341.03
2022-08-25T09:59:34.888Z,100340.34
2022-08-25T10:02:37.467Z,100326.66
2022-08-25T10:05:58.931Z,100329.50
2022-08-25T10:09:08.033Z,100321.19
2022-08-25T10:12:24.961Z,100304.28
2022-08-25T10:15:35.192Z,100320.53
2022-08-25T10:18:37.087Z,100311.56
2022-08-25T10:21:41.038Z,100312.75
2022-08-25T10:24:43.976Z,100305.53
2022-08-25T10:28:08.956Z,100306.88
2022-08-25T10:31:32.970Z,100298.59
2022-08-25T10:34:51.783Z,100305.31
2022-08-25T10:38:13.704Z,100301.66
2022-08-25T10:41:32.518Z,100295.19
2022-08-25T10:45:16.707Z,100291.84
2022-08-25T10:48:33.078Z,100287.19
2022-08-25T10:51:56.203Z,100283.56
2022-08-25T10:55:11.461Z,100273.78
2022-08-25T10:58:38.102Z,100277.13
2022-08-25T11:02:18.461Z,100272.25
2022-08-25T11:05:41.171Z,100260.75
2022-08-25T11:08:55.465Z,100255.38
2022-08-25T11:12:10.250Z,100252.34
2022-08-25T11:15:25.926Z,100252.94
2022-08-25T11:18:31.746Z,100249.16
2022-08-25T11:21:46.901Z,100242.03
2022-08-25T11:24:54.984Z,100249.66
2022-08-25T11:28:06.682Z,100254.97
2022-08-25T11:31:10.308Z,100240.06
2022-08-25T11:34:15.152Z,100240.06
2022-08-25T11:37:31.796Z,100229.03
2022-08-25T11:40:41.546Z,100233.44
2022-08-25T11:43:56.277Z,100236.56
2022-08-25T11:47:22.181Z,100237.41
2022-08-25T11:50:29.861Z,100236.47
2022-08-25T11:53:37.912Z,100226.63
2022-08-25T11:56:52.806Z,100235.00
2022-08-25T11:59:57.172Z,100229.06
2022-08-25T12:03:01.547Z,100219.75
2022-08-25T12:06:17.079Z,100218.91
2022-08-25T12:09:21.321Z,100214.13
2022-08-25T12:12:41.261Z,100213.69
2022-08-25T12:15:42.863Z,100212.38
2022-08-25T12:18:46.463Z,100203.91
2022-08-25T12:21:48.322Z,100207.47
2022-08-25T12:24:57.921Z,100201.22
2022-08-25T12:28:09.729Z,100187.75
2022-08-25T12:31:32.837Z,100191.66
2022-08-25T12:35:03.659Z,100184.38
2022-08-25T12:38:10.319Z,100188.50
2022-08-25T12:41:16.150Z,100180.31
2022-08-25T12:44:36.260Z,100185.94
2022-08-25T12:47:41.843Z,100185.22
2022-08-25T12:50:50.234Z,100182.59
2022-08-25T12:53:59.465Z,100180.53
2022-08-25T12:57:08.173Z,100183.38
2022-08-25T13:04:19.438Z,100177.31
2022-08-25T13:07:40.683Z,100172.94
2022-08-25T13:10:45.784Z,100165.00
2022-08-25T13:13:55.347Z,100157.06
2022-08-25T13:16:59.437Z,100157.06
2022-08-25T13:20:20.523Z,100160.34
2022-08-25T13:23:27.158Z,100150.50
2022-08-25T13:26:47.294Z,100148.50
2022-08-25T13:29:59.875Z,100140.41
2022-08-25T13:33:21.899Z,100135.75
2022-08-25T13:36:47.107Z,100128.63
2022-08-25T13:40:17.796Z,100139.53
2022-08-25T13:43:22.503Z,100132.63
2022-08-25T13:46:29.803Z,100131.44
2022-08-25T13:49:31.681Z,100124.56
2022-08-25T13:52:33.384Z,100117.66
2022-08-25T13:55:51.105Z,100120.50
2022-08-25T13:58:54.998Z,100113.19
2022-08-25T14:01:59.876Z,100112.41
2022-08-25T14:05:01.496Z,100105.69
2022-08-25T14:08:16.034Z,100104.75
2022-08-25T14:11:27.706Z,100106.22
2022-08-25T14:14:33.786Z,100107.94
2022-08-25T14:17:40.212Z,100100.78
2022-08-25T14:20:52.004Z,100100.44
2022-08-25T14:23:55.226Z,100083.44
2022-08-25T14:26:56.695Z,100082.00
2022-08-25T14:29:58.311Z,100083.25
2022-08-25T14:33:02.069Z,100090.41
2022-08-25T14:36:04.904Z,100075.47
2022-08-25T14:39:08.710Z,100083.69
2022-08-25T14:42:11.724Z,100079.25
2022-08-25T14:45:15.042Z,100065.59
2022-08-25T14:48:25.234Z,100069.16
2022-08-25T14:51:28.841Z,100061.78
2022-08-25T14:54:33.623Z,100064.31
2022-08-25T14:57:37.386Z,100057.81
2022-08-25T15:00:44.595Z,100052.53
2022-08-25T15:03:48.715Z,100048.53
2022-08-25T15:06:56.313Z,100052.06
2022-08-25T15:09:57.772Z,100047.78
2022-08-25T15:13:00.437Z,100053.28
2022-08-25T15:16:02.177Z,100056.41
2022-08-25T15:19:09.774Z,100040.94
2022-08-25T15:22:11.339Z,100042.81
2022-08-25T15:25:12.801Z,100045.66
2022-08-25T15:28:17.063Z,100036.31
2022-08-25T15:31:21.182Z,100033.84
2022-08-25T15:34:22.643Z,100026.78
2022-08-25T15:37:24.122Z,100033.09
2022-08-25T15:40:26.380Z,100033.56
2022-08-25T15:43:27.998Z,100027.50
2022-08-25T15:46:30.273Z,100024.38
2022-08-25T15:49:32.071Z,100022.69
2022-08-25T15:52:44.529Z,100024.09
2022-08-25T15:55:49.378Z,100028.06
2022-08-25T15:58:55.726Z,100024.31
2022-08-25T16:01:57.631Z,100024.81
2022-08-25T16:04:59.152Z,100024.97
2022-08-25T16:08:00.571Z,100021.72
2022-08-25T16:11:04.773Z,100025.53
2022-08-25T16:14:09.207Z,100016.88
2022-08-25T16:17:10.622Z,100009.25
2022-08-25T16:20:12.640Z,100024.03
2022-08-25T16:23:17.427Z,100009.91
2022-08-25T16:26:18.896Z,100008.00
2022-08-25T16:29:20.432Z,100014.47
2022-08-25T16:32:22.672Z,100007.31
2022-08-25T16:35:24.206Z,100009.44
2022-08-25T16:38:25.664Z,100001.09
2022-08-25T16:41:34.038Z,99994.03
2022-08-25T16:44:35.577Z,99989.66
2022-08-25T16:47:38.040Z,99990.94
2022-08-25T16:50:39.610Z,99985.69
2022-08-25T16:54:01.549Z,99989.84
2022-08-25T16:57:03.161Z,99990.69
2022-08-25T17:00:07.928Z,99991.97
2022-08-25T17:03:11.562Z,99987.72
2022-08-25T17:06:14.108Z,99989.81
2022-08-25T17:09:22.745Z,99982.22
2022-08-25T17:12:26.572Z,99989.38
2022-08-25T17:15:28.053Z,99983.03
2022-08-25T17:18:29.746Z,99986.41
2022-08-25T17:21:35.315Z,99985.94
2022-08-25T17:24:37.601Z,99995.16
2022-08-25T17:27:41.981Z,99991.31
2022-08-25T17:30:44.758Z,99992.94
2022-08-25T17:33:46.999Z,99990.88
2022-08-25T17:36:51.285Z,99991.66
2022-08-25T17:40:02.687Z,99991.06
2022-08-25T17:43:04.892Z,99995.03
2022-08-25T17:46:12.196Z,99995.41
2022-08-25T17:49:15.481Z,99994.53
2022-08-25T17:52:17.125Z,99998.72
2022-08-25T17:55:22.737Z,99998.25
2022-08-25T17:58:24.162Z,99998.19
2022-08-25T18:01:31.684Z,99990.63
2022-08-25T18:04:33.162Z,100000.41
2022-08-25T18:07:35.666Z,99997.66
2022-08-25T18:10:37.117Z,100002.34
2022-08-25T18:13:38.906Z,99998.34
2022-08-25T18:16:40.735Z,100004.56
2022-08-25T18:19:43.622Z,99998.63
2022-08-25T18:22:45.044Z,100010.44
2022-08-25T18:25:48.949Z,100010.94
2022-08-25T18:28:50.362Z,100008.31
2022-08-25T18:31:53.658Z,100007.44
2022-08-25T18:34:57.604Z,100011.88
2022-08-25T18:38:18.005Z,100014.38
2022-08-25T18:41:22.672Z,100017.00
2022-08-25T18:44:24.091Z,100017.16
2022-08-25T18:47:25.504Z,100016.25
2022-08-25T18:50:29.040Z,100015.94
2022-08-25T18:53:37.522Z,100019.47
2022-08-25T18:56:53.232Z,100014.44
2022-08-25T18:59:55.460Z,100021.06
2022-08-25T19:02:58.771Z,100021.41
2022-08-25T19:06:02.444Z,100026.47
2022-08-25T19:09:04.128Z,100019.31
2022-08-25T19:12:05.751Z,100016.06
2022-08-25T19:15:07.751Z,100020.91
2022-08-25T19:18:10.908Z,100018.25
2022-08-25T19:21:12.658Z,100017.97
2022-08-25T19:24:14.460Z,100011.84
2022-08-25T19:27:18.177Z,100020.56
2022-08-25T19:30:26.232Z,100023.13
2022-08-25T19:33:31.300Z,100022.00
2022-08-25T19:36:47.014Z,100021.84
2022-08-25T19:39:52.811Z,100017.34
2022-08-25T19:42:54.954Z,100019.56
2022-08-25T19:45:56.654Z,100016.22
2022-08-25T19:48:58.504Z,100027.06
2022-08-25T19:52:05.347Z,100026.22
2022-08-25T19:55:12.538Z,100035.91
2022-08-25T19:58:14.928Z,100031.88
2022-08-25T20:01:18.424Z,100032.25
2022-08-25T20:04:20.950Z,100030.34
2022-08-25T20:07:28.057Z,100040.03
2022-08-25T20:10:31.724Z,100041.38
2022-08-25T20:13:33.216Z,100038.00
2022-08-25T20:16:36.127Z,100043.09
2022-08-25T20:19:37.570Z,100037.69
2022-08-25T20:22:41.557Z,100048.50
2022-08-25T20:25:44.582Z,100050.50
2022-08-25T20:28:46.110Z,100046.97
2022-08-25T20:31:48.055Z,100043.06
2022-08-25T20:34:49.971Z,100048.47
2022-08-25T20:37:53.153Z,100052.16
2022-08-25T20:40:54.704Z,100050.16
2022-08-25T20:43:56.448Z,100045.41
2022-08-25T20:46:59.222Z,100046.44
2022-08-25T20:50:05.945Z,100044.41
2022-08-25T20:53:10.281Z,100045.28
2022-08-25T20:56:17.260Z,100049.16
2022-08-25T20:59:18.818Z,100044.91
2022-08-25T21:02:22.509Z,100050.00
2022-08-25T21:05:23.951Z,100053.19
2022-08-25T21:08:25.543Z,100049.81
2022-08-25T21:11:27.239Z,100055.22
2022-08-25T21:14:29.733Z,100051.16
2022-08-25T21:17:31.162Z,100058.75
2022-08-25T21:20:34.685Z,100053.84
2022-08-25T21:23:36.402Z,100057.19
2022-08-25T21:26:48.514Z,100060.56
2022-08-25T21:29:54.709Z,100062.94
2022-08-25T21:32:56.750Z,100055.72
2022-08-25T21:35:58.178Z,100056.56
2022-08-25T21:39:00.576Z,100060.44
2022-08-25T21:42:03.328Z,100063.47
2022-08-25T21:45:04.969Z,100060.44
2022-08-25T21:48:12.599Z,100063.47
2022-08-25T21:51:19.120Z,100064.13
2022-08-25T21:54:24.182Z,100067.34
2022-08-25T21:57:25.668Z,100065.13
2022-08-25T22:00:27.293Z,100065.78
2022-08-25T22:03:28.717Z,100065.41
2022-08-25T22:06:30.417Z,100067.41
2022-08-25T22:09:31.885Z,100058.59
2022-08-25T22:12:33.279Z,100064.88
2022-08-25T22:15:34.746Z,100059.94
2022-08-25T22:18:36.529Z,100059.28
2022-08-25T22:21:40.614Z,100056.19
2022-08-25T22:24:42.086Z,100053.81
2022-08-25T22:27:43.606Z,100051.41
2022-08-25T22:30:45.507Z,100058.75
2022-08-25T22:33:49.543Z,100063.50
2022-08-25T22:36:51.014Z,100051.63
2022-08-25T22:40:02.747Z,100051.63
2022-08-25T22:43:07.347Z,100056.03
2022-08-25T22:46:12.774Z,100051.94
2022-08-25T22:49:14.420Z,100060.72
2022-08-25T22:52:15.842Z,100062.22
2022-08-25T22:55:17.640Z,100053.75
2022-08-25T22:58:23.392Z,100056.91
2022-08-25T23:01:24.827Z,100057.22
2022-08-25T23:04:26.358Z,100055.53
2022-08-25T23:07:28.091Z,100053.16
2022-08-25T23:10:29.531Z,100051.06
2022-08-25T23:13:34.611Z,100051.06
2022-08-25T23:16:38.250Z,100049.53
2022-08-25T23:19:39.755Z,100047.66
2022-08-25T23:22:42.127Z,100041.22
2022-08-25T23:25:44.153Z,100056.03
2022-08-25T23:28:46.527Z,100047.53
2022-08-25T23:31:48.161Z,100041.16
2022-08-25T23:34:49.780Z,100042.59
2022-08-25T23:37:51.370Z,100051.31
2022-08-25T23:40:53.537Z,100044.75
2022-08-25T23:43:55.824Z,100047.75
2022-08-25T23:46:57.846Z,100050.47
2022-08-25T23:49:59.493Z,100040.38
2022-08-25T23:53:01.353Z,100038.50
2022-08-25T23:56:05.716Z,100040.56
2022-08-25T23:59:08.557Z,100045.50
